Crew | Aerofun Virtual



 METAR AND TAF INFORMATION
METAR FOR LIMP
ADDS - METARS form results

(1936 UTC 21 July 2019)
Data provider http://aviationweather.gov/metar/data/
 
METAR text: LIMP 211850Z VRB02KT CAVOK 30/21 Q1018
Conditions at: LIMP (PARMA , IT) observed 1850 UTC 21 July 2019
Temperature: 30.0°C (86°F)
Dewpoint: 21.0°C (70°F) [RH = 59%]
Pressure (altimeter): 30.06 inches Hg (1018.0 mb)
Winds: variable direction winds at 2 MPH (2 knots; 1.0 m/s)
Visibility: 6 or more miles (10+ km)
Ceiling: ceiling and visibility are OK
Clouds: unknown
Weather: no significant weather observed at this time

Forecast for: LIMP (PARMA , IT)
Text: TAF LIMP 211700Z 2118/2218 24006KT CAVOK
Forecast period: 1800 UTC 21 July 2019 to 1800 UTC 22 July 2019
Forecast type: FROM: standard forecast or significant change
Winds: from the WSW (240 degrees) at 7 MPH (6 knots; 3.1 m/s)
Visibility: 6 or more miles 10+ km)
Ceiling: unknown
Clouds: missing
Weather: NSW  (no significant weather)

 AIRPORT MAP

 RUNWAY INFORMATION
Runway 02 Runway length 6962 ft Runway width 148 ft
Runway elevation 158 ft Runway displaced threshold 702 ft Runway heading 17
Runway 20 Runway length 6962 ft Runway width 148 ft
Runway elevation 146 ft Runway displaced threshold 597 ft Runway heading 197

 AIRPORT FREQUENCIES
Type APP Name APP Frequency 126.55 MHZ
Type TWR Name TWR Frequency 118.45 MHZ

 AIRPORT NEAR NAVIGATION AIDS
Type NDB Name Parma Frequency 306 KHZ